Terminal Aerodrome Forecast
Issued by NWS

Home | Current Version | Previous Version | Text Only | Print | Product List | Glossary On
Versions: 1 2 3 4 5 6 7 8 9 10 11 12 13 14 15 16 17 18 19 20 21
000
FTUS41 KGYX 222322
TAFPSM
TAF
KPSM 222322Z 2300/2324 02005KT 6SM -SHRA OVC010
     FM230600 08007KT 5SM -RA BR OVC008
     FM231400 07007KT 2SM -RA BR OVC007=

USA.gov is the U.S. government's official web portal to all federal, state and local government web resources and services.